Howesville, Indiana
Current Conditions -  °F | °C
As of 3:15 AM on Friday 31 Oct 2014 (Local Time) from KHUF Reporting Station
Haze Haze  
Wind Chill: 44°   Ceiling: 9000
Heat Index: 44°   Visibility: 6mi
Dew Point: 43°   Wind: 0mph
Humidity: 96%   Direction: NA
Pressure: 30.03"   Gusts: NA
Location:  39.2016°N, 87.1874°W
Report Text: KHUF 310715Z 00000KT 6SM BR BKN090 07/06 A3003 RMK AO2 T00670061
Loading
Personal Weather Stations






























Interactive Weather Map
Tropical Storm Tracking
New forecast layout! Learn more

10-Day Weather Forecast

Advertisements
Track Severe Weather on mobile